RJAZ(METAR)
10/16 16:00
RJAZ 160700Z 06014G26KT 9000 RA OVC017 18/16 Q1021 RMK A3016=
戻る
トップページへ戻る
IMOC Co,.Ltd.